Time;durP1;ratioP1;P1;durP2;ratioP2;P2;SDS_P1;SDS_P2;PMS_P1;PMS_P2;Temp;Humidity;BMP_temperature;BMP_pressure;BME280_temperature;BME280_humidity;BME280_pressure;Samples;Min_cycle;Max_cycle;Signal;HPM_P1;HPM_P2
2021/11/20 00:01:41;;;;;;;;;26.75;22.50;;;;;;;;5070799;28;49551;-66
2021/11/20 00:04:06;;;;;;;;;24.00;21.75;;;;;;;;5070448;28;49705;-67
2021/11/20 00:06:34;;;;;;;;;29.25;25.00;;;;;;;;5070483;28;49810;-66
2021/11/20 00:09:00;;;;;;;;;27.50;24.75;;;;;;;;5070322;28;49735;-67
2021/11/20 00:11:27;;;;;;;;;24.00;22.25;;;;;;;;5069733;28;49700;-66
2021/11/20 00:13:53;;;;;;;;;24.25;22.50;;;;;;;;5070358;28;50872;-66
2021/11/20 00:16:20;;;;;;;;;21.75;21.50;;;;;;;;5070387;28;49651;-69
2021/11/20 00:18:45;;;;;;;;;22.50;22.50;;;;;;;;5070423;28;49743;-67
2021/11/20 00:21:17;;;;;;;;;17.25;16.00;;;;;;;;5070716;28;49967;-66
2021/11/20 00:23:45;;;;;;;;;21.50;20.75;;;;;;;;5069855;28;51222;-67
2021/11/20 00:26:12;;;;;;;;;16.75;14.25;;;;;;;;5070154;28;49825;-67
2021/11/20 00:31:25;;;;;;;;;21.50;20.00;;;;;;;;5070593;28;49799;-66
2021/11/20 00:33:51;;;;;;;;;19.25;17.25;;;;;;;;5069946;28;49704;-66
2021/11/20 00:36:16;;;;;;;;;19.00;18.50;;;;;;;;5070197;28;50014;-66
2021/11/20 00:38:42;;;;;;;;;19.50;18.50;;;;;;;;5069154;28;49791;-67
2021/11/20 00:41:11;;;;;;;;;18.75;17.50;;;;;;;;5070449;28;49963;-67
2021/11/20 00:43:37;;;;;;;;;15.25;15.25;;;;;;;;5069953;28;51422;-66
2021/11/20 00:46:02;;;;;;;;;17.00;17.00;;;;;;;;5069974;28;49802;-67
2021/11/20 00:48:28;;;;;;;;;12.25;11.00;;;;;;;;5070226;28;49650;-69
2021/11/20 00:51:02;;;;;;;;;15.75;13.00;;;;;;;;5070264;27;49874;-69
2021/11/20 00:53:27;;;;;;;;;14.75;10.25;;;;;;;;5069826;28;49898;-66
2021/11/20 00:55:53;;;;;;;;;11.50;11.00;;;;;;;;5070077;28;49864;-68
2021/11/20 00:58:19;;;;;;;;;12.50;12.50;;;;;;;;5070001;28;49787;-66
2021/11/20 01:00:49;;;;;;;;;10.75;10.50;;;;;;;;5070039;28;49863;-65
2021/11/20 01:03:15;;;;;;;;;13.00;11.00;;;;;;;;5069761;28;49663;-66
2021/11/20 01:05:42;;;;;;;;;9.50;9.00;;;;;;;;5069903;28;49632;-66
2021/11/20 01:08:08;;;;;;;;;13.00;12.25;;;;;;;;5051444;28;49719;-66
2021/11/20 01:10:35;;;;;;;;;11.00;11.00;;;;;;;;5069889;28;49574;-66
2021/11/20 01:13:01;;;;;;;;;11.75;9.00;;;;;;;;5069602;28;49707;-67
2021/11/20 01:15:31;;;;;;;;;9.50;9.50;;;;;;;;5069920;28;49747;-67
2021/11/20 01:17:57;;;;;;;;;12.25;10.00;;;;;;;;5069890;28;49744;-66
2021/11/20 01:20:23;;;;;;;;;15.50;11.75;;;;;;;;5069868;28;49914;-66
2021/11/20 01:22:48;;;;;;;;;10.00;10.00;;;;;;;;5072019;28;49948;-66
2021/11/20 01:25:13;;;;;;;;;12.75;12.75;;;;;;;;5072758;28;49717;-66
2021/11/20 01:27:39;;;;;;;;;10.00;9.25;;;;;;;;5054906;28;49980;-66
2021/11/20 01:30:06;;;;;;;;;12.75;10.50;;;;;;;;5073249;28;50094;-66
2021/11/20 01:32:32;;;;;;;;;18.25;14.50;;;;;;;;5072766;27;49932;-66
2021/11/20 01:34:57;;;;;;;;;10.25;9.00;;;;;;;;5072733;28;49681;-67
2021/11/20 01:37:22;;;;;;;;;17.75;15.25;;;;;;;;5072817;28;49640;-65
2021/11/20 01:39:48;;;;;;;;;12.00;12.00;;;;;;;;5072980;28;49758;-66
2021/11/20 01:42:21;;;;;;;;;14.75;10.50;;;;;;;;5072619;28;50176;-65
2021/11/20 01:44:50;;;;;;;;;15.00;14.75;;;;;;;;5072979;28;49914;-67
2021/11/20 01:47:23;;;;;;;;;14.00;13.50;;;;;;;;5072861;28;49797;-66
2021/11/20 01:49:54;;;;;;;;;15.00;13.50;;;;;;;;5072937;28;49658;-66
2021/11/20 01:52:37;;;;;;;;;18.25;18.25;;;;;;;;5072214;28;49830;-66
2021/11/20 01:55:21;;;;;;;;;18.50;13.50;;;;;;;;5072610;28;49902;-65
2021/11/20 01:58:05;;;;;;;;;16.00;14.75;;;;;;;;5072604;28;49549;-66
2021/11/20 02:00:36;;;;;;;;;15.25;13.25;;;;;;;;5072534;28;49601;-65
2021/11/20 02:03:12;;;;;;;;;20.00;17.25;;;;;;;;5072329;28;50519;-66
2021/11/20 02:05:49;;;;;;;;;21.00;16.50;;;;;;;;5072423;28;49839;-66
2021/11/20 02:08:15;;;;;;;;;17.50;17.00;;;;;;;;5054154;28;49646;-65
2021/11/20 02:10:52;;;;;;;;;14.75;14.00;;;;;;;;5054511;28;50033;-66
2021/11/20 02:13:22;;;;;;;;;16.75;16.50;;;;;;;;5072244;27;50281;-66
2021/11/20 02:15:53;;;;;;;;;13.25;10.00;;;;;;;;5072287;28;49929;-66
2021/11/20 02:18:19;;;;;;;;;14.00;11.50;;;;;;;;5054040;28;50001;-66
2021/11/20 02:20:54;;;;;;;;;9.00;9.00;;;;;;;;5072419;28;49727;-67
2021/11/20 02:23:19;;;;;;;;;14.00;13.50;;;;;;;;5071777;28;50478;-66
2021/11/20 02:25:44;;;;;;;;;15.00;11.50;;;;;;;;5072041;28;49793;-66
2021/11/20 02:28:09;;;;;;;;;16.00;14.00;;;;;;;;5072377;28;50109;-66
2021/11/20 02:30:36;;;;;;;;;19.25;15.75;;;;;;;;5072433;28;50094;-66
2021/11/20 02:33:04;;;;;;;;;15.00;13.00;;;;;;;;5070765;28;49750;-66
2021/11/20 02:35:31;;;;;;;;;16.25;13.50;;;;;;;;5071918;28;49660;-66
2021/11/20 02:37:57;;;;;;;;;14.75;12.25;;;;;;;;5071634;28;49598;-66
2021/11/20 02:40:22;;;;;;;;;18.75;16.75;;;;;;;;5072021;28;49797;-66
2021/11/20 02:42:48;;;;;;;;;18.50;17.75;;;;;;;;5053467;28;52779;-65
2021/11/20 02:45:18;;;;;;;;;16.75;16.75;;;;;;;;5071674;28;49597;-65
2021/11/20 02:47:43;;;;;;;;;21.75;16.25;;;;;;;;5071824;28;49690;-66
2021/11/20 02:50:09;;;;;;;;;21.00;20.00;;;;;;;;5071806;27;49957;-66
2021/11/20 02:52:35;;;;;;;;;16.00;15.00;;;;;;;;5071229;27;50489;-66
2021/11/20 02:55:00;;;;;;;;;18.75;18.50;;;;;;;;5071729;28;49638;-67
2021/11/20 02:57:33;;;;;;;;;24.25;22.75;;;;;;;;5071608;28;49728;-66
2021/11/20 02:59:58;;;;;;;;;22.75;20.00;;;;;;;;5071774;28;49741;-65
2021/11/20 03:02:24;;;;;;;;;22.25;18.00;;;;;;;;5053333;28;50483;-66
2021/11/20 03:04:50;;;;;;;;;21.50;21.50;;;;;;;;5071544;28;49854;-67
2021/11/20 03:07:15;;;;;;;;;19.75;17.75;;;;;;;;5071325;27;49749;-67
2021/11/20 03:09:41;;;;;;;;;22.50;18.50;;;;;;;;5071638;28;49781;-66
2021/11/20 03:12:08;;;;;;;;;23.50;20.00;;;;;;;;5071310;28;49694;-66
2021/11/20 03:14:33;;;;;;;;;17.00;17.00;;;;;;;;5071335;28;49826;-66
2021/11/20 03:17:00;;;;;;;;;13.75;13.50;;;;;;;;5071511;27;49741;-66
2021/11/20 03:19:30;;;;;;;;;16.25;16.00;;;;;;;;5071475;28;49699;-65
2021/11/20 03:21:57;;;;;;;;;21.00;18.50;;;;;;;;5070859;28;49729;-66
2021/11/20 03:24:23;;;;;;;;;18.75;18.75;;;;;;;;5071158;28;49704;-66
2021/11/20 03:26:49;;;;;;;;;23.25;20.25;;;;;;;;5071060;28;49802;-66
2021/11/20 03:29:14;;;;;;;;;17.00;14.75;;;;;;;;5071309;27;49780;-66
2021/11/20 03:31:40;;;;;;;;;18.75;16.50;;;;;;;;5071025;28;49661;-66
2021/11/20 03:34:06;;;;;;;;;18.75;17.00;;;;;;;;5070758;27;49809;-66
2021/11/20 03:36:34;;;;;;;;;22.00;20.00;;;;;;;;5070982;28;49879;-66
2021/11/20 03:38:59;;;;;;;;;20.00;20.00;;;;;;;;5071034;28;49746;-66
2021/11/20 03:41:24;;;;;;;;;20.50;20.50;;;;;;;;5070838;28;50447;-66
2021/11/20 03:43:50;;;;;;;;;20.75;19.50;;;;;;;;5070774;28;49804;-67
2021/11/20 03:46:15;;;;;;;;;16.50;16.50;;;;;;;;5071092;28;49674;-66
2021/11/20 03:48:40;;;;;;;;;19.75;19.50;;;;;;;;5071183;28;50051;-66
2021/11/20 03:51:05;;;;;;;;;22.75;20.25;;;;;;;;5070105;28;49670;-66
2021/11/20 03:53:31;;;;;;;;;23.50;21.75;;;;;;;;5070552;28;49567;-66
2021/11/20 03:55:56;;;;;;;;;15.00;15.00;;;;;;;;5052590;28;49753;-66
2021/11/20 03:58:22;;;;;;;;;17.00;13.25;;;;;;;;5070987;28;49633;-66
2021/11/20 04:00:52;;;;;;;;;23.50;20.50;;;;;;;;5070360;28;51448;-65
2021/11/20 04:03:21;;;;;;;;;20.25;16.50;;;;;;;;5070578;28;49682;-65
2021/11/20 04:05:50;;;;;;;;;16.75;16.25;;;;;;;;5070822;28;49772;-66
2021/11/20 04:08:15;;;;;;;;;20.50;13.50;;;;;;;;5070578;28;49652;-66
2021/11/20 04:10:41;;;;;;;;;24.25;21.50;;;;;;;;5070313;28;49784;-65
2021/11/20 04:13:06;;;;;;;;;12.00;10.00;;;;;;;;5070556;27;49748;-66
2021/11/20 04:15:31;;;;;;;;;15.50;14.25;;;;;;;;5070788;27;49908;-67
2021/11/20 04:17:56;;;;;;;;;15.25;12.50;;;;;;;;5070679;28;49998;-67
2021/11/20 04:20:22;;;;;;;;;12.25;12.00;;;;;;;;5070179;28;49738;-67
2021/11/20 04:22:48;;;;;;;;;15.50;14.25;;;;;;;;5070244;28;49553;-66
2021/11/20 04:25:15;;;;;;;;;14.00;14.00;;;;;;;;5070228;28;49685;-68
2021/11/20 04:27:40;;;;;;;;;14.00;10.25;;;;;;;;5070499;28;49926;-68
2021/11/20 04:30:06;;;;;;;;;16.75;14.75;;;;;;;;5051957;28;50538;-66
2021/11/20 04:32:31;;;;;;;;;13.25;9.75;;;;;;;;5070243;28;49598;-68
2021/11/20 04:34:57;;;;;;;;;14.00;11.75;;;;;;;;5070179;28;49557;-66
2021/11/20 04:37:22;;;;;;;;;15.75;11.25;;;;;;;;5070353;28;49705;-66
2021/11/20 04:39:47;;;;;;;;;9.00;8.00;;;;;;;;5070044;28;50155;-67
2021/11/20 04:42:13;;;;;;;;;12.50;10.50;;;;;;;;5070260;28;49696;-66
2021/11/20 04:44:38;;;;;;;;;13.75;13.00;;;;;;;;5070210;28;50074;-66
2021/11/20 04:47:03;;;;;;;;;10.50;10.50;;;;;;;;5070406;28;50056;-66
2021/11/20 04:49:28;;;;;;;;;8.75;7.25;;;;;;;;5069944;28;50493;-66
2021/11/20 04:51:54;;;;;;;;;4.25;4.25;;;;;;;;5069743;28;49673;-66
2021/11/20 04:54:19;;;;;;;;;7.75;7.75;;;;;;;;5070258;28;49833;-66
2021/11/20 04:56:44;;;;;;;;;9.25;8.25;;;;;;;;5071546;28;49758;-66
2021/11/20 04:59:09;;;;;;;;;8.00;8.00;;;;;;;;5073353;28;50430;-65
2021/11/20 05:01:34;;;;;;;;;9.75;9.75;;;;;;;;5073371;28;49831;-65
2021/11/20 05:04:01;;;;;;;;;10.00;8.75;;;;;;;;5073500;28;49718;-66
2021/11/20 05:06:26;;;;;;;;;10.00;8.00;;;;;;;;5055461;28;49842;-66
2021/11/20 05:08:53;;;;;;;;;8.00;7.00;;;;;;;;5073119;28;49626;-66
2021/11/20 05:11:18;;;;;;;;;9.50;9.25;;;;;;;;5073316;28;49725;-67
2021/11/20 05:13:44;;;;;;;;;7.00;7.00;;;;;;;;5073353;28;49762;-67
2021/11/20 05:16:10;;;;;;;;;4.50;4.50;;;;;;;;5073314;28;49696;-66
2021/11/20 05:18:36;;;;;;;;;6.50;6.50;;;;;;;;5073082;28;50535;-67
2021/11/20 05:21:01;;;;;;;;;6.25;4.75;;;;;;;;5073020;28;49830;-66
2021/11/20 05:23:28;;;;;;;;;8.25;8.25;;;;;;;;5054577;28;49749;-67
2021/11/20 05:25:53;;;;;;;;;8.00;7.00;;;;;;;;5073110;28;49920;-66
2021/11/20 05:28:19;;;;;;;;;10.25;7.50;;;;;;;;5073077;28;49990;-67
2021/11/20 05:30:46;;;;;;;;;12.50;9.75;;;;;;;;5072925;28;50204;-66
2021/11/20 05:33:18;;;;;;;;;8.00;8.00;;;;;;;;5073291;28;49844;-69
2021/11/20 05:35:44;;;;;;;;;10.50;7.50;;;;;;;;5073046;28;49830;-67
2021/11/20 05:38:09;;;;;;;;;8.75;8.00;;;;;;;;5072577;28;49798;-67
2021/11/20 05:40:37;;;;;;;;;8.25;7.50;;;;;;;;5072838;28;49751;-66
2021/11/20 05:43:03;;;;;;;;;13.25;12.50;;;;;;;;5072426;28;49612;-71
2021/11/20 05:45:31;;;;;;;;;8.75;8.00;;;;;;;;5073051;28;49880;-69
2021/11/20 05:47:56;;;;;;;;;8.75;8.00;;;;;;;;5072621;28;49767;-70
2021/11/20 05:50:24;;;;;;;;;13.00;8.00;;;;;;;;5072636;28;49658;-66
2021/11/20 05:52:49;;;;;;;;;6.75;6.75;;;;;;;;5072634;28;49866;-68
2021/11/20 05:55:16;;;;;;;;;8.75;7.50;;;;;;;;5072924;28;49963;-68
2021/11/20 05:57:41;;;;;;;;;8.75;8.50;;;;;;;;5072411;28;50255;-67
2021/11/20 06:00:12;;;;;;;;;9.50;9.25;;;;;;;;5072527;28;49783;-68
2021/11/20 06:02:37;;;;;;;;;15.50;13.75;;;;;;;;5072595;28;49979;-66
2021/11/20 06:05:02;;;;;;;;;15.00;12.25;;;;;;;;5072827;28;49673;-66
2021/11/20 06:07:28;;;;;;;;;13.00;12.00;;;;;;;;5071992;28;50644;-67
2021/11/20 06:09:53;;;;;;;;;10.25;7.75;;;;;;;;5054425;28;50041;-67
2021/11/20 06:12:18;;;;;;;;;8.50;8.50;;;;;;;;5054158;28;49755;-66
2021/11/20 06:14:43;;;;;;;;;9.75;8.25;;;;;;;;5072623;28;49931;-70
2021/11/20 06:17:09;;;;;;;;;9.50;9.50;;;;;;;;5072288;28;49662;-67
2021/11/20 06:19:34;;;;;;;;;8.25;7.00;;;;;;;;5072253;28;49892;-71
2021/11/20 06:21:59;;;;;;;;;8.75;6.00;;;;;;;;5072086;28;49876;-67
2021/11/20 06:24:25;;;;;;;;;11.75;9.50;;;;;;;;5072348;27;49820;-68
2021/11/20 06:26:50;;;;;;;;;9.25;8.25;;;;;;;;5071825;28;50273;-70
2021/11/20 06:29:16;;;;;;;;;13.25;11.25;;;;;;;;5072052;28;49792;-70
2021/11/20 06:31:41;;;;;;;;;12.25;11.00;;;;;;;;5072181;28;50240;-73
2021/11/20 06:34:06;;;;;;;;;13.00;12.00;;;;;;;;5072328;28;49665;-72
2021/11/20 06:36:32;;;;;;;;;11.75;10.00;;;;;;;;5071741;28;49665;-67
2021/11/20 06:38:57;;;;;;;;;8.50;8.00;;;;;;;;5071695;28;49760;-67
2021/11/20 06:41:22;;;;;;;;;7.75;6.75;;;;;;;;5071983;28;49722;-66
2021/11/20 06:43:48;;;;;;;;;8.50;7.25;;;;;;;;5072116;28;50031;-66
2021/11/20 06:46:14;;;;;;;;;9.00;7.00;;;;;;;;5071828;28;50360;-66
2021/11/20 06:48:40;;;;;;;;;9.75;9.75;;;;;;;;5071862;28;49870;-66
2021/11/20 06:51:07;;;;;;;;;10.75;9.50;;;;;;;;5071675;28;49758;-67
2021/11/20 06:53:32;;;;;;;;;8.25;8.25;;;;;;;;5071769;27;50012;-72
2021/11/20 06:55:58;;;;;;;;;8.00;5.50;;;;;;;;5071535;27;50463;-66
2021/11/20 07:00:58;;;;;;;;;7.00;7.00;;;;;;;;5071678;28;49972;-69
2021/11/20 07:03:27;;;;;;;;;12.00;10.00;;;;;;;;5071661;28;49679;-72
2021/11/20 07:05:53;;;;;;;;;9.00;9.00;;;;;;;;5053169;28;50787;-67
2021/11/20 07:08:19;;;;;;;;;9.50;9.25;;;;;;;;5071106;27;49773;-67
2021/11/20 07:10:45;;;;;;;;;10.75;10.75;;;;;;;;5071548;28;49731;-68
2021/11/20 07:13:11;;;;;;;;;10.25;10.25;;;;;;;;5071716;28;49618;-66
2021/11/20 07:15:37;;;;;;;;;13.75;11.50;;;;;;;;5071233;28;49558;-66
2021/11/20 07:18:02;;;;;;;;;7.50;6.75;;;;;;;;5071388;28;49589;-66
2021/11/20 07:20:29;;;;;;;;;9.00;8.75;;;;;;;;5070767;28;49945;-67
2021/11/20 07:22:55;;;;;;;;;10.25;10.25;;;;;;;;5071144;28;49959;-66
2021/11/20 07:25:21;;;;;;;;;11.50;11.00;;;;;;;;5070526;28;49850;-67
2021/11/20 07:27:46;;;;;;;;;12.50;10.50;;;;;;;;5071097;28;49774;-67
2021/11/20 07:30:14;;;;;;;;;15.50;13.50;;;;;;;;5071448;28;49728;-66
2021/11/20 07:32:39;;;;;;;;;9.75;8.75;;;;;;;;5071594;28;49994;-67
2021/11/20 07:35:04;;;;;;;;;16.25;14.25;;;;;;;;5070948;28;49615;-66
2021/11/20 07:37:30;;;;;;;;;13.50;12.75;;;;;;;;5070648;28;49720;-66
2021/11/20 07:39:55;;;;;;;;;14.75;14.00;;;;;;;;5071069;28;49617;-70
2021/11/20 07:42:20;;;;;;;;;12.75;10.25;;;;;;;;5071413;28;49599;-65
2021/11/20 07:44:46;;;;;;;;;12.75;10.00;;;;;;;;5070912;28;50379;-67
2021/11/20 07:47:11;;;;;;;;;13.75;13.75;;;;;;;;5070998;28;49702;-66
2021/11/20 07:49:37;;;;;;;;;16.25;13.75;;;;;;;;5071088;28;49849;-66
2021/11/20 07:52:03;;;;;;;;;14.50;13.50;;;;;;;;5070883;27;50009;-65
2021/11/20 07:54:28;;;;;;;;;14.00;13.00;;;;;;;;5070723;28;50804;-67
2021/11/20 07:56:53;;;;;;;;;15.25;15.00;;;;;;;;5070906;28;49942;-66
2021/11/20 07:59:19;;;;;;;;;14.50;13.75;;;;;;;;5070780;28;49663;-65
2021/11/20 08:01:44;;;;;;;;;20.00;16.25;;;;;;;;5070956;28;49662;-65
2021/11/20 08:04:10;;;;;;;;;16.75;16.25;;;;;;;;5070401;28;50268;-66
2021/11/20 08:06:35;;;;;;;;;14.00;11.00;;;;;;;;5070221;28;49771;-66
2021/11/20 08:09:03;;;;;;;;;13.75;13.00;;;;;;;;5070637;28;49715;-64
2021/11/20 08:11:33;;;;;;;;;18.50;15.50;;;;;;;;5070834;27;49741;-66
2021/11/20 08:13:58;;;;;;;;;18.25;17.25;;;;;;;;5070418;28;49779;-66
2021/11/20 08:16:23;;;;;;;;;19.75;19.75;;;;;;;;5070761;28;49824;-67
2021/11/20 08:18:49;;;;;;;;;17.50;15.75;;;;;;;;5070605;28;49918;-66
2021/11/20 08:21:14;;;;;;;;;12.50;12.50;;;;;;;;5070520;27;49846;-67
2021/11/20 08:23:40;;;;;;;;;17.25;16.75;;;;;;;;5051384;28;51100;-67
2021/11/20 08:26:06;;;;;;;;;17.00;14.00;;;;;;;;5069928;27;49807;-66
2021/11/20 08:28:31;;;;;;;;;11.25;11.25;;;;;;;;5051622;28;49842;-67
2021/11/20 08:30:57;;;;;;;;;18.00;14.50;;;;;;;;5070403;28;49693;-66
2021/11/20 08:33:22;;;;;;;;;14.25;14.25;;;;;;;;5055039;28;52208;-66
2021/11/20 08:35:48;;;;;;;;;21.75;19.75;;;;;;;;5054926;27;49653;-66
2021/11/20 08:38:14;;;;;;;;;18.75;13.75;;;;;;;;5073053;27;50109;-66
2021/11/20 08:40:40;;;;;;;;;19.25;16.00;;;;;;;;5073853;27;49759;-66
2021/11/20 08:43:05;;;;;;;;;13.25;13.25;;;;;;;;5073066;27;49830;-66
2021/11/20 08:45:33;;;;;;;;;18.75;17.75;;;;;;;;5073313;27;49825;-66
2021/11/20 08:47:58;;;;;;;;;20.25;16.25;;;;;;;;5073667;27;49856;-66
2021/11/20 08:50:26;;;;;;;;;20.75;16.00;;;;;;;;5073742;27;50107;-66
2021/11/20 08:52:51;;;;;;;;;25.25;19.00;;;;;;;;5073175;27;50759;-67
2021/11/20 08:55:16;;;;;;;;;19.75;16.00;;;;;;;;5073328;28;49905;-66
2021/11/20 08:57:42;;;;;;;;;21.75;19.00;;;;;;;;5073432;28;49819;-66
2021/11/20 09:00:12;;;;;;;;;19.25;17.00;;;;;;;;5073522;28;49582;-66
2021/11/20 09:02:44;;;;;;;;;17.00;15.50;;;;;;;;5073109;27;49906;-66
2021/11/20 09:05:15;;;;;;;;;19.00;14.25;;;;;;;;5075696;27;49575;-70
2021/11/20 09:07:44;;;;;;;;;20.75;17.75;;;;;;;;5077313;28;49778;-72
2021/11/20 09:10:19;;;;;;;;;16.75;16.75;;;;;;;;5073396;27;49846;-66
2021/11/20 09:13:13;;;;;;;;;13.25;12.50;;;;;;;;5073167;27;50553;-66
2021/11/20 09:15:41;;;;;;;;;21.50;19.50;;;;;;;;5059416;28;49788;-65
2021/11/20 09:18:06;;;;;;;;;21.75;19.25;;;;;;;;5073261;28;50105;-72
2021/11/20 09:20:32;;;;;;;;;14.75;12.25;;;;;;;;5073249;27;49624;-73
2021/11/20 09:22:58;;;;;;;;;16.25;14.75;;;;;;;;5054239;28;51735;-74
2021/11/20 09:25:23;;;;;;;;;17.50;16.75;;;;;;;;5072550;28;49759;-73
2021/11/20 09:27:49;;;;;;;;;24.75;19.25;;;;;;;;5071939;27;49667;-72
2021/11/20 09:30:18;;;;;;;;;20.50;16.75;;;;;;;;5072041;28;50245;-73
2021/11/20 09:32:43;;;;;;;;;19.25;17.25;;;;;;;;5071825;28;51289;-73
2021/11/20 09:35:09;;;;;;;;;15.50;14.50;;;;;;;;5071783;28;50005;-66
2021/11/20 09:37:34;;;;;;;;;17.00;14.75;;;;;;;;5071297;27;50294;-64
2021/11/20 09:40:00;;;;;;;;;19.50;16.50;;;;;;;;5071958;28;49782;-65
2021/11/20 09:42:35;;;;;;;;;19.00;15.00;;;;;;;;5070603;28;50769;-66
2021/11/20 09:45:04;;;;;;;;;16.00;16.00;;;;;;;;5071744;27;49817;-67
2021/11/20 09:47:35;;;;;;;;;20.00;18.50;;;;;;;;5063080;28;50035;-68
2021/11/20 09:50:21;;;;;;;;;16.25;14.75;;;;;;;;5057241;28;49753;-68
2021/11/20 09:52:47;;;;;;;;;20.25;17.25;;;;;;;;5050163;28;49889;-67
2021/11/20 09:55:16;;;;;;;;;18.25;16.50;;;;;;;;5051162;28;49742;-67
2021/11/20 09:57:49;;;;;;;;;23.00;15.00;;;;;;;;5051270;28;50124;-67
2021/11/20 10:00:33;;;;;;;;;20.50;17.25;;;;;;;;5051322;28;49884;-67
2021/11/20 10:03:02;;;;;;;;;10.00;10.00;;;;;;;;5064675;27;51170;-64
2021/11/20 10:05:30;;;;;;;;;18.25;15.50;;;;;;;;5071044;28;49754;-64
2021/11/20 10:08:07;;;;;;;;;15.00;15.00;;;;;;;;5055777;28;50226;-71
2021/11/20 10:10:40;;;;;;;;;9.00;8.75;;;;;;;;5055258;28;49982;-65
2021/11/20 10:13:15;;;;;;;;;19.75;19.75;;;;;;;;5076489;27;50643;-66
2021/11/20 10:15:43;;;;;;;;;15.75;14.50;;;;;;;;5076731;28;49860;-67
2021/11/20 10:18:29;;;;;;;;;18.25;16.00;;;;;;;;5052293;28;50114;-65
2021/11/20 10:20:54;;;;;;;;;19.00;17.75;;;;;;;;5059446;27;49965;-65
2021/11/20 10:23:37;;;;;;;;;17.75;17.75;;;;;;;;5080990;27;50319;-66
2021/11/20 10:26:03;;;;;;;;;20.50;18.50;;;;;;;;5031568;27;1195886;-66
2021/11/20 10:28:34;;;;;;;;;16.50;16.25;;;;;;;;5058418;28;49768;-65
2021/11/20 10:31:08;;;;;;;;;16.75;16.75;;;;;;;;5049962;28;49804;-66
2021/11/20 10:33:39;;;;;;;;;20.75;19.50;;;;;;;;5056944;28;50362;-66
2021/11/20 10:36:09;;;;;;;;;18.25;18.25;;;;;;;;5070000;28;49913;-65
2021/11/20 10:38:45;;;;;;;;;20.75;20.50;;;;;;;;5069661;27;50045;-66
2021/11/20 10:41:17;;;;;;;;;19.00;18.50;;;;;;;;5070475;28;49844;-66
2021/11/20 10:43:44;;;;;;;;;17.75;16.50;;;;;;;;5069902;28;50491;-65
2021/11/20 10:46:21;;;;;;;;;20.25;20.25;;;;;;;;5071028;28;49681;-66
2021/11/20 10:48:49;;;;;;;;;22.50;19.00;;;;;;;;5071782;27;49920;-65
2021/11/20 10:51:33;;;;;;;;;16.75;16.75;;;;;;;;5072235;27;50040;-65
2021/11/20 10:54:25;;;;;;;;;18.00;16.00;;;;;;;;5070136;27;49737;-67
2021/11/20 10:56:56;;;;;;;;;21.25;20.75;;;;;;;;5032007;28;49925;-67
2021/11/20 10:59:27;;;;;;;;;18.50;18.50;;;;;;;;5071244;27;49626;-65
2021/11/20 11:01:55;;;;;;;;;22.00;18.75;;;;;;;;5079661;27;49775;-65
2021/11/20 11:04:20;;;;;;;;;22.75;21.75;;;;;;;;5091769;27;51181;-66
2021/11/20 11:07:01;;;;;;;;;22.75;21.50;;;;;;;;5091694;27;49834;-66
2021/11/20 11:09:33;;;;;;;;;16.75;16.75;;;;;;;;5073587;27;49804;-67
2021/11/20 11:12:04;;;;;;;;;22.00;20.50;;;;;;;;5071399;28;49736;-66
2021/11/20 11:14:49;;;;;;;;;15.75;13.75;;;;;;;;5071104;28;49913;-66
2021/11/20 11:17:20;;;;;;;;;19.00;16.50;;;;;;;;5070959;27;49779;-66
2021/11/20 11:20:09;;;;;;;;;16.00;13.25;;;;;;;;5071190;28;49887;-66
2021/11/20 11:22:35;;;;;;;;;18.50;14.25;;;;;;;;5071011;27;49715;-66
2021/11/20 11:25:03;;;;;;;;;21.00;20.50;;;;;;;;5052338;28;51313;-66
2021/11/20 11:27:37;;;;;;;;;13.25;12.75;;;;;;;;5070844;28;49868;-62
2021/11/20 11:30:09;;;;;;;;;25.75;21.50;;;;;;;;5052886;28;49672;-62
2021/11/20 11:32:36;;;;;;;;;19.50;16.00;;;;;;;;5076058;27;49919;-62
2021/11/20 11:35:16;;;;;;;;;19.00;15.00;;;;;;;;5065506;27;50575;-67
2021/11/20 11:37:48;;;;;;;;;20.50;17.50;;;;;;;;5050495;28;49798;-71
2021/11/20 11:40:24;;;;;;;;;20.75;20.00;;;;;;;;5050637;28;49779;-67
2021/11/20 11:42:59;;;;;;;;;24.75;22.75;;;;;;;;5069029;28;49318;-69
2021/11/20 11:45:38;;;;;;;;;14.25;11.00;;;;;;;;5066701;28;49414;-70
2021/11/20 11:48:15;;;;;;;;;17.00;16.00;;;;;;;;5086029;28;49348;-71
2021/11/20 11:50:59;;;;;;;;;19.00;17.50;;;;;;;;5089088;28;49500;-69
2021/11/20 11:53:27;;;;;;;;;20.00;19.50;;;;;;;;5088905;27;49321;-70
2021/11/20 11:55:54;;;;;;;;;17.00;17.00;;;;;;;;5083416;28;49834;-65
2021/11/20 11:58:25;;;;;;;;;18.50;17.75;;;;;;;;5078516;28;49811;-70
2021/11/20 12:00:53;;;;;;;;;25.75;23.00;;;;;;;;5071791;27;49958;-72
2021/11/20 12:03:25;;;;;;;;;21.00;17.50;;;;;;;;5055244;27;49889;-72
2021/11/20 12:05:59;;;;;;;;;22.25;22.25;;;;;;;;5070729;28;50549;-68
2021/11/20 12:08:32;;;;;;;;;20.75;18.50;;;;;;;;5073839;28;50060;-73
2021/11/20 12:11:08;;;;;;;;;22.25;20.25;;;;;;;;5070232;28;49992;-62
2021/11/20 12:13:35;;;;;;;;;20.00;18.50;;;;;;;;5070535;27;49869;-66
2021/11/20 12:16:12;;;;;;;;;19.25;19.00;;;;;;;;5070146;27;50217;-67
2021/11/20 12:18:44;;;;;;;;;23.00;20.50;;;;;;;;5070202;28;49750;-77
2021/11/20 12:21:23;;;;;;;;;24.00;23.00;;;;;;;;5070342;28;49966;-72
2021/11/20 12:23:53;;;;;;;;;20.00;17.50;;;;;;;;5070328;28;49727;-73
2021/11/20 12:26:25;;;;;;;;;27.25;23.00;;;;;;;;5069716;28;50656;-79
2021/11/20 12:28:50;;;;;;;;;29.50;25.50;;;;;;;;5069974;28;50050;-78
2021/11/20 12:31:30;;;;;;;;;23.25;21.25;;;;;;;;5068316;28;49815;-78
2021/11/20 12:34:13;;;;;;;;;24.25;21.50;;;;;;;;5069213;28;49837;-83
2021/11/20 12:36:38;;;;;;;;;21.25;21.25;;;;;;;;5068127;28;51069;-78
2021/11/20 12:39:20;;;;;;;;;25.75;23.25;;;;;;;;5068572;28;50015;-78
2021/11/20 12:41:52;;;;;;;;;30.25;26.25;;;;;;;;5065367;27;49902;-76
2021/11/20 12:44:23;;;;;;;;;16.50;16.50;;;;;;;;5051086;28;49890;-71
2021/11/20 12:47:11;;;;;;;;;22.75;21.25;;;;;;;;5049182;28;50907;-72
2021/11/20 12:49:39;;;;;;;;;21.75;19.75;;;;;;;;5068116;27;49885;-69
2021/11/20 12:52:23;;;;;;;;;24.50;22.25;;;;;;;;5047841;28;50125;-63
2021/11/20 12:54:49;;;;;;;;;26.25;22.75;;;;;;;;5066912;28;49880;-72
2021/11/20 12:57:29;;;;;;;;;23.75;20.75;;;;;;;;5083743;27;50325;-65
2021/11/20 13:00:11;;;;;;;;;21.75;20.25;;;;;;;;5073491;28;49468;-62
2021/11/20 13:02:36;;;;;;;;;23.75;21.25;;;;;;;;5076343;27;49720;-65
2021/11/20 13:05:17;;;;;;;;;25.25;23.50;;;;;;;;5064585;27;49886;-67
2021/11/20 13:08:09;;;;;;;;;26.75;25.25;;;;;;;;5069964;27;50016;-70
2021/11/20 13:10:53;;;;;;;;;26.00;25.50;;;;;;;;5062657;27;50118;-79
2021/11/20 13:13:30;;;;;;;;;23.50;22.00;;;;;;;;5050886;28;49810;-79
2021/11/20 13:15:55;;;;;;;;;28.75;27.00;;;;;;;;5051253;28;50024;-73
2021/11/20 13:18:25;;;;;;;;;21.25;20.25;;;;;;;;5071168;28;50844;-73
2021/11/20 13:20:56;;;;;;;;;37.25;25.00;;;;;;;;5071613;27;50211;-74
2021/11/20 13:23:23;;;;;;;;;23.00;21.50;;;;;;;;5072646;27;49898;-74
2021/11/20 13:25:48;;;;;;;;;22.50;22.00;;;;;;;;5073176;27;49771;-73
2021/11/20 13:28:14;;;;;;;;;25.25;24.00;;;;;;;;5073000;28;50256;-74
2021/11/20 13:30:41;;;;;;;;;29.50;26.50;;;;;;;;5073020;28;49896;-72
2021/11/20 13:33:07;;;;;;;;;26.50;25.00;;;;;;;;5073795;28;49746;-80
2021/11/20 13:35:35;;;;;;;;;24.75;21.25;;;;;;;;5073854;28;50186;-81
2021/11/20 13:38:03;;;;;;;;;27.00;23.25;;;;;;;;5072979;27;49767;-78
2021/11/20 13:40:33;;;;;;;;;31.00;27.25;;;;;;;;5072890;27;50289;-78
2021/11/20 13:42:59;;;;;;;;;31.25;30.00;;;;;;;;5072796;28;49663;-78
2021/11/20 13:45:25;;;;;;;;;32.75;30.25;;;;;;;;5073083;27;50100;-78
2021/11/20 13:47:50;;;;;;;;;36.75;33.50;;;;;;;;5072345;28;51098;-77
2021/11/20 13:50:16;;;;;;;;;48.25;39.25;;;;;;;;5072622;28;49811;-78
2021/11/20 13:52:42;;;;;;;;;33.00;28.75;;;;;;;;5072475;28;49686;-76
2021/11/20 13:55:07;;;;;;;;;31.75;30.00;;;;;;;;5072675;27;49810;-76
2021/11/20 13:57:34;;;;;;;;;31.00;28.00;;;;;;;;5072478;28;50328;-69
2021/11/20 14:00:17;;;;;;;;;24.50;23.25;;;;;;;;5072248;28;49819;-68
2021/11/20 14:02:52;;;;;;;;;22.50;20.25;;;;;;;;5072517;28;50000;-69
2021/11/20 14:05:19;;;;;;;;;28.50;26.75;;;;;;;;5072572;28;50055;-69
2021/11/20 14:07:46;;;;;;;;;31.00;30.75;;;;;;;;5072165;28;49943;-69
2021/11/20 14:10:13;;;;;;;;;34.25;31.25;;;;;;;;5072527;27;49713;-71
2021/11/20 14:12:51;;;;;;;;;27.50;26.50;;;;;;;;5072525;27;49535;-70
2021/11/20 14:15:16;;;;;;;;;36.00;31.00;;;;;;;;5072478;27;49810;-71
2021/11/20 14:17:41;;;;;;;;;32.50;28.00;;;;;;;;5071935;27;49908;-70
2021/11/20 14:20:08;;;;;;;;;33.25;33.25;;;;;;;;5072120;28;49880;-70
2021/11/20 14:22:38;;;;;;;;;34.50;33.00;;;;;;;;5072064;27;49823;-68
2021/11/20 14:25:06;;;;;;;;;26.75;26.00;;;;;;;;5053867;28;49940;-68
2021/11/20 14:27:32;;;;;;;;;34.25;31.50;;;;;;;;5071733;27;50010;-69
2021/11/20 14:29:57;;;;;;;;;31.50;31.25;;;;;;;;5070729;27;49566;-69
2021/11/20 14:32:23;;;;;;;;;43.25;36.50;;;;;;;;5072032;28;49774;-70
2021/11/20 14:34:49;;;;;;;;;36.75;34.00;;;;;;;;5053827;28;50062;-69